Nearby METAR Reports

 

KPIA - Peoria, Illinois, USA
Distance from station: SSW 11mi, 18km
Updated: 07/21/2024 7:54am
Overcast
Overcast
 Wind from calm
Wind: Calm
Temperature: 70°F, 21°C
Dew Point: 64°F, 18°C
Humidity: 83%
Barometer: 30.13 inHg, 1020.3 hPa
Clouds: Overcast
Visibility: 10 miles, 16 km
Cloud details: Overcast 7000 ft
2024/07/21 12:54 KPIA 211254Z 00000KT 10SM OVC070 21/18 A3013 RMK AO2 SLP201 T02110183
KC75 - Lacon, Illinois, USA
Distance from station: NE 18mi, 30km
Updated: 07/21/2024 8:15am
Overcast
Overcast
 
Temperature: 66°F, 19°C
Dew Point: 63°F, 17°C
Humidity: 88%
Barometer: 30.13 inHg, 1020.3 hPa
Clouds: Overcast
Visibility: 10 miles, 16 km
Cloud details: Overcast 10000 ft
2024/07/21 13:15 KC75 211315Z AUTO 10SM OVC100 19/17 A3013 RMK AO2 T01900172
 
KGBG - Galesburg, Illinois, USA
Distance from station: W 43mi, 69km
Updated: 07/21/2024 8:15am
Clear
Clear
 Wind from calm
Wind: Calm
Temperature: 72°F, 22°C
Dew Point: 72°F, 22°C
Humidity: 100%
Barometer: 30.16 inHg, 1021.3 hPa
Clouds: Clear
Visibility: 10 miles, 16 km
2024/07/21 13:15 KGBG 211315Z AUTO 00000KT 10SM CLR 22/22 A3016 RMK AO2 T02210218
KBMI - Bloomington/Norm, Illinois, USA
Distance from station: ESE 44mi, 71km
Updated: 07/21/2024 7:56am
Clear
Clear
 Wind from NNE
Wind: NNE 3 mph, 6 km/h
Temperature: 70°F, 21°C
Dew Point: 63°F, 17°C
Humidity: 78%
Barometer: 30.15 inHg, 1021 hPa
Clouds: Clear
Visibility: 10 miles, 16 km
2024/07/21 12:56 KBMI 211256Z 02003KT 10SM CLR 21/17 A3015 RMK AO2 SLP203 T02060167
 
KVYS - Peru, Illinois, USA
Distance from station: NNE 44mi, 71km
Updated: 07/21/2024 8:15am
Clear
Clear
 Wind from calm
Wind: Calm
Temperature: 66°F, 19°C
Dew Point: 63°F, 17°C
Humidity: 88%
Barometer: 30.14 inHg, 1020.7 hPa
Clouds: Clear
Visibility: 10 miles, 16 km
2024/07/21 13:15 KVYS 211315Z AUTO 00000KT 10SM CLR 19/17 A3014 RMK AO2 T01890174
KAAA - Lincoln, Illinois, USA
Distance from station: SSE 48mi, 77km
Updated: 07/21/2024 8:15am
Clear
Clear
 Wind from NE
Wind: NE 3 mph, 6 km/h
Temperature: 70°F, 21°C
Dew Point: 68°F, 20°C
Humidity: 94%
Barometer: 30.13 inHg, 1020.3 hPa
Clouds: Clear
Visibility: 10 miles, 16 km
2024/07/21 13:15 KAAA 211315Z AUTO 04003KT 10SM CLR 21/20 A3013 RMK AO2 T02130199
 
KPNT - Pontiac, Illinois, USA
Distance from station: E 53mi, 85km
Updated: 07/21/2024 8:15am
Clear
Clear
 Wind from calm
Wind: Calm
Temperature: 68°F, 20°C
Dew Point: 64°F, 18°C
Humidity: 88%
Barometer: 30.14 inHg, 1020.7 hPa
Clouds: Clear
Visibility: 10 miles, 16 km
2024/07/21 13:15 KPNT 211315Z AUTO 00000KT 10SM CLR 20/18 A3014 RMK AO2 T02020183
KMQB - Macomb Muni, Illinois, USA
Distance from station: WSW 58mi, 93km
Updated: 07/21/2024 8:15am
Clear
Clear
 Wind from calm
Wind: Calm
Temperature: 68°F, 20°C
Dew Point: 64°F, 18°C
Humidity: 88%
Barometer: 30.16 inHg, 1021.3 hPa
Clouds: Clear
Visibility: 10 miles, 16 km
2024/07/21 13:15 KMQB 211315Z AUTO 00000KT 10SM CLR 20/18 A3016 RMK AO2 T01970179
 
KMLI - Moline/Quad City, Illinois, USA
Distance from station: NW 64mi, 103km
Updated: 07/21/2024 7:52am
Clear
Clear
 Wind from calm
Wind: Calm
Temperature: 70°F, 21°C
Dew Point: 64°F, 18°C
Humidity: 83%
Barometer: 30.13 inHg, 1020.3 hPa
Clouds: Clear
Visibility: 10 miles, 16 km
2024/07/21 12:52 KMLI 211252Z 00000KT 10SM CLR 21/18 A3013 RMK AO2 SLP199 T02060183
KSQI - Sterling Rockfal, Illinois, USA
Distance from station: N 64mi, 103km
Updated: 07/21/2024 7:56am
Clear
Clear
 Wind from calm
Wind: Calm
Temperature: 66°F, 19°C
Dew Point: 66°F, 19°C
Humidity: 100%
Barometer: 30.14 inHg, 1020.7 hPa
Clouds: Clear
Visibility: 10 miles, 16 km
2024/07/21 12:56 KSQI 211256Z AUTO 00000KT 10SM CLR 19/19 A3014 RMK AO2 SLP070 T01890189 PWINO PNO $
 
KSPI - Springfield, Illinois, USA
Distance from station: S 67mi, 108km
Updated: 07/21/2024 7:52am
Partly cloudy
Partly cloudy
 Wind from NNE
Wind: NNE 6 mph, 9 km/h
Temperature: 70°F, 21°C
Dew Point: 64°F, 18°C
Humidity: 83%
Barometer: 30.12 inHg, 1020 hPa
Clouds: Partly cloudy
Visibility: 10 miles, 16 km
Cloud details: Partly cloudy 9000 ft
2024/07/21 12:52 KSPI 211252Z 03005KT 10SM SCT090 21/18 A3012 RMK AO2 SLP196 T02110183
KDVN - Davenport/Quad C, Iowa, USA
Distance from station: NW 74mi, 120km
Updated: 07/21/2024 7:52am
Clear
Clear
 Wind from calm
Wind: Calm
Temperature: 66°F, 19°C
Dew Point: 63°F, 17°C
Humidity: 88%
Barometer: 30.15 inHg, 1021 hPa
Clouds: Clear
Visibility: 10 miles, 16 km
2024/07/21 12:52 KDVN 211252Z AUTO 00000KT 10SM CLR 19/17 A3015 RMK AO2 SLP204 T01940172